sensor_id;sensor_type;location;lat;lon;timestamp;P1;durP1;ratioP1;P2;durP2;ratioP2
22634;SDS011;11484;50.858;4.384;2023-05-16T00:00:15;7.07;;;2.03;;
22634;SDS011;11484;50.858;4.384;2023-05-16T00:02:41;10.20;;;1.70;;
22634;SDS011;11484;50.858;4.384;2023-05-16T00:05:07;9.50;;;2.72;;
22634;SDS011;11484;50.858;4.384;2023-05-16T00:07:34;9.10;;;1.83;;
22634;SDS011;11484;50.858;4.384;2023-05-16T00:10:00;11.18;;;1.88;;
22634;SDS011;11484;50.858;4.384;2023-05-16T00:12:27;8.93;;;2.03;;
22634;SDS011;11484;50.858;4.384;2023-05-16T00:14:53;11.30;;;1.88;;
22634;SDS011;11484;50.858;4.384;2023-05-16T00:17:19;9.07;;;1.92;;
22634;SDS011;11484;50.858;4.384;2023-05-16T00:19:46;8.90;;;1.80;;
22634;SDS011;11484;50.858;4.384;2023-05-16T00:22:16;13.35;;;2.30;;
22634;SDS011;11484;50.858;4.384;2023-05-16T00:24:41;11.88;;;1.80;;
22634;SDS011;11484;50.858;4.384;2023-05-16T00:27:07;12.35;;;2.00;;
22634;SDS011;11484;50.858;4.384;2023-05-16T00:29:33;17.92;;;1.98;;
22634;SDS011;11484;50.858;4.384;2023-05-16T00:31:59;11.90;;;2.20;;
22634;SDS011;11484;50.858;4.384;2023-05-16T00:34:25;8.88;;;2.13;;
22634;SDS011;11484;50.858;4.384;2023-05-16T00:36:51;8.07;;;1.83;;
22634;SDS011;11484;50.858;4.384;2023-05-16T00:39:17;12.23;;;1.92;;
22634;SDS011;11484;50.858;4.384;2023-05-16T00:41:43;7.60;;;2.83;;
22634;SDS011;11484;50.858;4.384;2023-05-16T00:44:09;12.38;;;2.33;;
22634;SDS011;11484;50.858;4.384;2023-05-16T00:46:35;9.73;;;1.92;;
22634;SDS011;11484;50.858;4.384;2023-05-16T00:49:01;8.48;;;1.70;;
22634;SDS011;11484;50.858;4.384;2023-05-16T00:51:27;12.23;;;1.88;;
22634;SDS011;11484;50.858;4.384;2023-05-16T00:53:53;6.35;;;1.90;;
22634;SDS011;11484;50.858;4.384;2023-05-16T00:56:20;11.45;;;2.03;;
22634;SDS011;11484;50.858;4.384;2023-05-16T00:58:46;9.52;;;1.98;;
22634;SDS011;11484;50.858;4.384;2023-05-16T01:01:12;6.93;;;1.70;;
22634;SDS011;11484;50.858;4.384;2023-05-16T01:03:38;9.13;;;1.75;;
22634;SDS011;11484;50.858;4.384;2023-05-16T01:06:04;6.53;;;1.83;;
22634;SDS011;11484;50.858;4.384;2023-05-16T01:08:30;10.13;;;2.03;;
22634;SDS011;11484;50.858;4.384;2023-05-16T01:10:59;7.50;;;1.63;;
22634;SDS011;11484;50.858;4.384;2023-05-16T01:16:08;7.40;;;1.65;;
22634;SDS011;11484;50.858;4.384;2023-05-16T01:18:40;10.27;;;2.13;;
22634;SDS011;11484;50.858;4.384;2023-05-16T01:21:15;10.52;;;2.33;;
22634;SDS011;11484;50.858;4.384;2023-05-16T01:23:58;6.70;;;1.73;;
22634;SDS011;11484;50.858;4.384;2023-05-16T01:26:33;8.18;;;1.85;;
22634;SDS011;11484;50.858;4.384;2023-05-16T01:29:00;8.43;;;1.98;;
22634;SDS011;11484;50.858;4.384;2023-05-16T01:31:27;8.60;;;1.52;;
22634;SDS011;11484;50.858;4.384;2023-05-16T01:33:53;7.47;;;1.70;;
22634;SDS011;11484;50.858;4.384;2023-05-16T01:36:29;9.57;;;2.10;;
22634;SDS011;11484;50.858;4.384;2023-05-16T01:39:25;5.88;;;1.73;;
22634;SDS011;11484;50.858;4.384;2023-05-16T01:42:09;8.75;;;1.65;;
22634;SDS011;11484;50.858;4.384;2023-05-16T01:44:45;15.05;;;2.35;;
22634;SDS011;11484;50.858;4.384;2023-05-16T01:47:19;15.50;;;2.53;;
22634;SDS011;11484;50.858;4.384;2023-05-16T01:52:19;10.63;;;1.60;;
22634;SDS011;11484;50.858;4.384;2023-05-16T01:55:15;9.07;;;1.63;;
22634;SDS011;11484;50.858;4.384;2023-05-16T01:57:48;6.68;;;1.58;;
22634;SDS011;11484;50.858;4.384;2023-05-16T02:00:16;11.13;;;2.15;;
22634;SDS011;11484;50.858;4.384;2023-05-16T02:02:42;13.18;;;1.95;;
22634;SDS011;11484;50.858;4.384;2023-05-16T02:05:07;13.05;;;1.85;;
22634;SDS011;11484;50.858;4.384;2023-05-16T02:07:33;10.52;;;1.85;;
22634;SDS011;11484;50.858;4.384;2023-05-16T02:09:59;10.80;;;3.10;;
22634;SDS011;11484;50.858;4.384;2023-05-16T02:12:25;12.32;;;2.30;;
22634;SDS011;11484;50.858;4.384;2023-05-16T02:14:50;10.60;;;2.40;;
22634;SDS011;11484;50.858;4.384;2023-05-16T02:17:16;8.18;;;2.90;;
22634;SDS011;11484;50.858;4.384;2023-05-16T02:19:42;10.75;;;2.15;;
22634;SDS011;11484;50.858;4.384;2023-05-16T02:22:07;9.25;;;2.05;;
22634;SDS011;11484;50.858;4.384;2023-05-16T02:24:33;9.57;;;1.98;;
22634;SDS011;11484;50.858;4.384;2023-05-16T02:26:58;12.85;;;2.13;;
22634;SDS011;11484;50.858;4.384;2023-05-16T02:29:24;9.75;;;1.83;;
22634;SDS011;11484;50.858;4.384;2023-05-16T02:31:50;15.68;;;2.25;;
22634;SDS011;11484;50.858;4.384;2023-05-16T02:34:15;12.35;;;1.88;;
22634;SDS011;11484;50.858;4.384;2023-05-16T02:36:42;8.52;;;2.53;;
22634;SDS011;11484;50.858;4.384;2023-05-16T02:39:08;10.30;;;2.03;;
22634;SDS011;11484;50.858;4.384;2023-05-16T02:41:34;11.95;;;2.08;;
22634;SDS011;11484;50.858;4.384;2023-05-16T02:44:00;10.68;;;1.90;;
22634;SDS011;11484;50.858;4.384;2023-05-16T02:46:27;14.02;;;2.10;;
22634;SDS011;11484;50.858;4.384;2023-05-16T02:48:54;12.90;;;2.17;;
22634;SDS011;11484;50.858;4.384;2023-05-16T02:51:21;11.68;;;2.42;;
22634;SDS011;11484;50.858;4.384;2023-05-16T02:53:48;11.82;;;2.63;;
22634;SDS011;11484;50.858;4.384;2023-05-16T02:56:14;10.13;;;2.15;;
22634;SDS011;11484;50.858;4.384;2023-05-16T02:58:40;8.40;;;1.77;;
22634;SDS011;11484;50.858;4.384;2023-05-16T03:01:06;9.60;;;2.38;;
22634;SDS011;11484;50.858;4.384;2023-05-16T03:03:32;9.43;;;2.30;;
22634;SDS011;11484;50.858;4.384;2023-05-16T03:06:00;7.25;;;2.65;;
22634;SDS011;11484;50.858;4.384;2023-05-16T03:08:25;8.77;;;2.25;;
22634;SDS011;11484;50.858;4.384;2023-05-16T03:10:51;7.20;;;2.17;;
22634;SDS011;11484;50.858;4.384;2023-05-16T03:13:17;8.75;;;2.13;;
22634;SDS011;11484;50.858;4.384;2023-05-16T03:15:43;8.82;;;2.42;;
22634;SDS011;11484;50.858;4.384;2023-05-16T03:18:09;12.45;;;2.15;;
22634;SDS011;11484;50.858;4.384;2023-05-16T03:20:35;12.27;;;2.70;;
22634;SDS011;11484;50.858;4.384;2023-05-16T03:23:01;11.23;;;2.53;;
22634;SDS011;11484;50.858;4.384;2023-05-16T03:25:27;11.23;;;2.63;;
22634;SDS011;11484;50.858;4.384;2023-05-16T03:27:53;8.13;;;2.20;;
22634;SDS011;11484;50.858;4.384;2023-05-16T03:30:19;9.85;;;2.60;;
22634;SDS011;11484;50.858;4.384;2023-05-16T03:32:45;11.23;;;2.70;;
22634;SDS011;11484;50.858;4.384;2023-05-16T03:35:11;13.15;;;2.75;;
22634;SDS011;11484;50.858;4.384;2023-05-16T03:37:37;9.52;;;2.90;;
22634;SDS011;11484;50.858;4.384;2023-05-16T03:40:03;11.32;;;2.40;;
22634;SDS011;11484;50.858;4.384;2023-05-16T03:42:30;8.02;;;2.80;;
22634;SDS011;11484;50.858;4.384;2023-05-16T03:44:56;11.52;;;2.50;;
22634;SDS011;11484;50.858;4.384;2023-05-16T03:47:22;12.07;;;2.70;;
22634;SDS011;11484;50.858;4.384;2023-05-16T03:49:48;10.70;;;2.40;;
22634;SDS011;11484;50.858;4.384;2023-05-16T03:52:13;11.90;;;2.65;;
22634;SDS011;11484;50.858;4.384;2023-05-16T03:54:39;11.63;;;2.30;;
22634;SDS011;11484;50.858;4.384;2023-05-16T03:57:05;9.57;;;2.50;;
22634;SDS011;11484;50.858;4.384;2023-05-16T03:59:30;11.20;;;2.83;;
22634;SDS011;11484;50.858;4.384;2023-05-16T04:01:56;9.02;;;2.50;;
22634;SDS011;11484;50.858;4.384;2023-05-16T04:04:22;7.82;;;2.50;;
22634;SDS011;11484;50.858;4.384;2023-05-16T04:06:47;12.23;;;2.42;;
22634;SDS011;11484;50.858;4.384;2023-05-16T04:09:13;11.35;;;2.55;;
22634;SDS011;11484;50.858;4.384;2023-05-16T04:11:39;8.15;;;2.20;;
22634;SDS011;11484;50.858;4.384;2023-05-16T04:14:04;11.30;;;2.33;;
22634;SDS011;11484;50.858;4.384;2023-05-16T04:16:30;6.60;;;1.90;;
22634;SDS011;11484;50.858;4.384;2023-05-16T04:18:56;10.15;;;2.45;;
22634;SDS011;11484;50.858;4.384;2023-05-16T04:21:22;7.60;;;2.35;;
22634;SDS011;11484;50.858;4.384;2023-05-16T04:23:47;10.60;;;2.80;;
22634;SDS011;11484;50.858;4.384;2023-05-16T04:26:13;10.75;;;2.78;;
22634;SDS011;11484;50.858;4.384;2023-05-16T04:28:38;14.35;;;2.92;;
22634;SDS011;11484;50.858;4.384;2023-05-16T04:31:05;15.52;;;2.92;;
22634;SDS011;11484;50.858;4.384;2023-05-16T04:33:32;10.35;;;2.33;;
22634;SDS011;11484;50.858;4.384;2023-05-16T04:35:58;11.43;;;3.28;;
22634;SDS011;11484;50.858;4.384;2023-05-16T04:38:24;14.70;;;2.92;;
22634;SDS011;11484;50.858;4.384;2023-05-16T04:40:50;9.25;;;2.85;;
22634;SDS011;11484;50.858;4.384;2023-05-16T04:43:17;15.13;;;2.67;;
22634;SDS011;11484;50.858;4.384;2023-05-16T04:45:43;12.15;;;2.60;;
22634;SDS011;11484;50.858;4.384;2023-05-16T04:48:09;11.63;;;2.38;;
22634;SDS011;11484;50.858;4.384;2023-05-16T04:50:36;11.40;;;2.45;;
22634;SDS011;11484;50.858;4.384;2023-05-16T04:53:01;10.00;;;2.22;;
22634;SDS011;11484;50.858;4.384;2023-05-16T04:55:27;8.00;;;2.45;;
22634;SDS011;11484;50.858;4.384;2023-05-16T04:57:53;11.55;;;3.05;;
22634;SDS011;11484;50.858;4.384;2023-05-16T05:00:19;9.68;;;2.22;;
22634;SDS011;11484;50.858;4.384;2023-05-16T05:02:45;9.65;;;2.30;;
22634;SDS011;11484;50.858;4.384;2023-05-16T05:05:10;8.82;;;2.17;;
22634;SDS011;11484;50.858;4.384;2023-05-16T05:07:36;13.18;;;2.63;;
22634;SDS011;11484;50.858;4.384;2023-05-16T05:10:02;7.22;;;2.70;;
22634;SDS011;11484;50.858;4.384;2023-05-16T05:12:28;9.25;;;2.45;;
22634;SDS011;11484;50.858;4.384;2023-05-16T05:14:53;8.05;;;2.40;;
22634;SDS011;11484;50.858;4.384;2023-05-16T05:17:19;6.90;;;2.35;;
22634;SDS011;11484;50.858;4.384;2023-05-16T05:19:46;6.15;;;2.13;;
22634;SDS011;11484;50.858;4.384;2023-05-16T05:22:12;6.97;;;2.08;;
22634;SDS011;11484;50.858;4.384;2023-05-16T05:24:38;8.02;;;2.22;;
22634;SDS011;11484;50.858;4.384;2023-05-16T05:27:04;10.13;;;2.40;;
22634;SDS011;11484;50.858;4.384;2023-05-16T05:29:30;7.07;;;1.90;;
22634;SDS011;11484;50.858;4.384;2023-05-16T05:31:56;5.18;;;1.83;;
22634;SDS011;11484;50.858;4.384;2023-05-16T05:34:21;11.50;;;4.05;;
22634;SDS011;11484;50.858;4.384;2023-05-16T05:36:47;6.40;;;2.38;;
22634;SDS011;11484;50.858;4.384;2023-05-16T05:39:13;10.55;;;2.25;;
22634;SDS011;11484;50.858;4.384;2023-05-16T05:41:38;11.63;;;2.30;;
22634;SDS011;11484;50.858;4.384;2023-05-16T05:44:04;10.25;;;3.13;;
22634;SDS011;11484;50.858;4.384;2023-05-16T05:46:31;8.15;;;3.25;;
22634;SDS011;11484;50.858;4.384;2023-05-16T05:48:57;10.60;;;2.53;;
22634;SDS011;11484;50.858;4.384;2023-05-16T05:51:24;6.18;;;1.98;;
22634;SDS011;11484;50.858;4.384;2023-05-16T05:53:50;7.53;;;1.80;;
22634;SDS011;11484;50.858;4.384;2023-05-16T05:56:16;11.50;;;1.77;;
22634;SDS011;11484;50.858;4.384;2023-05-16T05:58:42;10.70;;;1.85;;
22634;SDS011;11484;50.858;4.384;2023-05-16T06:01:09;8.23;;;1.45;;
22634;SDS011;11484;50.858;4.384;2023-05-16T06:03:35;7.85;;;2.13;;
22634;SDS011;11484;50.858;4.384;2023-05-16T06:06:01;11.55;;;2.00;;
22634;SDS011;11484;50.858;4.384;2023-05-16T06:08:27;6.28;;;1.98;;
22634;SDS011;11484;50.858;4.384;2023-05-16T06:10:53;9.35;;;1.63;;
22634;SDS011;11484;50.858;4.384;2023-05-16T06:13:19;9.40;;;1.85;;
22634;SDS011;11484;50.858;4.384;2023-05-16T06:15:49;6.88;;;1.67;;
22634;SDS011;11484;50.858;4.384;2023-05-16T06:18:15;8.55;;;1.40;;
22634;SDS011;11484;50.858;4.384;2023-05-16T06:20:41;15.68;;;2.83;;
22634;SDS011;11484;50.858;4.384;2023-05-16T06:23:07;3.95;;;1.25;;
22634;SDS011;11484;50.858;4.384;2023-05-16T06:25:32;5.47;;;1.08;;
22634;SDS011;11484;50.858;4.384;2023-05-16T06:27:58;6.90;;;1.85;;
22634;SDS011;11484;50.858;4.384;2023-05-16T06:30:24;6.88;;;1.73;;
22634;SDS011;11484;50.858;4.384;2023-05-16T06:32:50;7.10;;;1.75;;
22634;SDS011;11484;50.858;4.384;2023-05-16T06:35:15;7.78;;;1.40;;
22634;SDS011;11484;50.858;4.384;2023-05-16T06:37:41;7.10;;;0.95;;
22634;SDS011;11484;50.858;4.384;2023-05-16T06:40:07;12.07;;;2.97;;
22634;SDS011;11484;50.858;4.384;2023-05-16T06:42:33;5.15;;;1.65;;
22634;SDS011;11484;50.858;4.384;2023-05-16T06:44:58;8.18;;;1.60;;
22634;SDS011;11484;50.858;4.384;2023-05-16T06:47:24;5.90;;;1.25;;
22634;SDS011;11484;50.858;4.384;2023-05-16T06:49:50;5.95;;;1.10;;
22634;SDS011;11484;50.858;4.384;2023-05-16T06:52:15;8.10;;;2.03;;
22634;SDS011;11484;50.858;4.384;2023-05-16T06:54:41;5.15;;;1.42;;
22634;SDS011;11484;50.858;4.384;2023-05-16T06:57:07;5.00;;;1.27;;
22634;SDS011;11484;50.858;4.384;2023-05-16T06:59:33;9.02;;;1.55;;
22634;SDS011;11484;50.858;4.384;2023-05-16T07:01:59;5.43;;;1.30;;
22634;SDS011;11484;50.858;4.384;2023-05-16T07:04:25;7.70;;;1.52;;
22634;SDS011;11484;50.858;4.384;2023-05-16T07:06:52;5.50;;;1.10;;
22634;SDS011;11484;50.858;4.384;2023-05-16T07:09:18;6.43;;;1.33;;
22634;SDS011;11484;50.858;4.384;2023-05-16T07:11:45;6.90;;;1.58;;
22634;SDS011;11484;50.858;4.384;2023-05-16T07:14:11;4.45;;;1.45;;
22634;SDS011;11484;50.858;4.384;2023-05-16T07:16:36;7.72;;;1.80;;
22634;SDS011;11484;50.858;4.384;2023-05-16T07:19:02;7.15;;;1.83;;
22634;SDS011;11484;50.858;4.384;2023-05-16T07:21:28;7.38;;;1.50;;
22634;SDS011;11484;50.858;4.384;2023-05-16T07:23:54;9.07;;;3.83;;
22634;SDS011;11484;50.858;4.384;2023-05-16T07:26:19;5.10;;;1.25;;
22634;SDS011;11484;50.858;4.384;2023-05-16T07:28:48;4.88;;;1.00;;
22634;SDS011;11484;50.858;4.384;2023-05-16T07:31:14;4.80;;;1.58;;
22634;SDS011;11484;50.858;4.384;2023-05-16T07:33:41;3.65;;;1.10;;
22634;SDS011;11484;50.858;4.384;2023-05-16T07:36:07;6.45;;;1.27;;
22634;SDS011;11484;50.858;4.384;2023-05-16T07:38:33;5.85;;;1.30;;
22634;SDS011;11484;50.858;4.384;2023-05-16T07:40:59;5.55;;;1.25;;
22634;SDS011;11484;50.858;4.384;2023-05-16T07:43:25;8.35;;;1.85;;
22634;SDS011;11484;50.858;4.384;2023-05-16T07:45:51;3.83;;;1.08;;
22634;SDS011;11484;50.858;4.384;2023-05-16T07:48:17;3.85;;;1.20;;
22634;SDS011;11484;50.858;4.384;2023-05-16T07:50:43;3.92;;;1.15;;
22634;SDS011;11484;50.858;4.384;2023-05-16T07:53:08;2.17;;;0.85;;
22634;SDS011;11484;50.858;4.384;2023-05-16T07:55:34;6.60;;;1.25;;
22634;SDS011;11484;50.858;4.384;2023-05-16T07:58:00;6.60;;;1.00;;
22634;SDS011;11484;50.858;4.384;2023-05-16T08:00:26;5.57;;;1.30;;
22634;SDS011;11484;50.858;4.384;2023-05-16T08:02:51;5.13;;;1.08;;
22634;SDS011;11484;50.858;4.384;2023-05-16T08:05:17;7.57;;;1.63;;
22634;SDS011;11484;50.858;4.384;2023-05-16T08:07:43;5.90;;;1.08;;
22634;SDS011;11484;50.858;4.384;2023-05-16T08:10:08;4.00;;;0.77;;
22634;SDS011;11484;50.858;4.384;2023-05-16T08:12:35;4.50;;;1.35;;
22634;SDS011;11484;50.858;4.384;2023-05-16T08:15:00;4.32;;;1.02;;
22634;SDS011;11484;50.858;4.384;2023-05-16T08:17:27;6.35;;;0.95;;
22634;SDS011;11484;50.858;4.384;2023-05-16T08:19:52;5.50;;;1.77;;
22634;SDS011;11484;50.858;4.384;2023-05-16T08:22:18;3.55;;;0.95;;
22634;SDS011;11484;50.858;4.384;2023-05-16T08:24:44;2.58;;;0.85;;
22634;SDS011;11484;50.858;4.384;2023-05-16T08:27:10;5.10;;;1.27;;
22634;SDS011;11484;50.858;4.384;2023-05-16T08:29:36;4.18;;;0.90;;
22634;SDS011;11484;50.858;4.384;2023-05-16T08:32:01;4.18;;;0.88;;
22634;SDS011;11484;50.858;4.384;2023-05-16T08:34:29;3.45;;;1.02;;
22634;SDS011;11484;50.858;4.384;2023-05-16T08:36:56;3.75;;;0.90;;
22634;SDS011;11484;50.858;4.384;2023-05-16T08:39:21;9.60;;;0.95;;
22634;SDS011;11484;50.858;4.384;2023-05-16T08:41:47;22.88;;;10.48;;
22634;SDS011;11484;50.858;4.384;2023-05-16T08:44:13;3.58;;;1.52;;
22634;SDS011;11484;50.858;4.384;2023-05-16T08:46:47;6.65;;;1.13;;
22634;SDS011;11484;50.858;4.384;2023-05-16T08:49:16;5.53;;;1.00;;
22634;SDS011;11484;50.858;4.384;2023-05-16T08:51:42;3.78;;;1.10;;
22634;SDS011;11484;50.858;4.384;2023-05-16T08:54:15;4.20;;;1.20;;
22634;SDS011;11484;50.858;4.384;2023-05-16T08:56:41;3.00;;;0.90;;
22634;SDS011;11484;50.858;4.384;2023-05-16T08:59:09;3.85;;;1.00;;
22634;SDS011;11484;50.858;4.384;2023-05-16T09:01:36;3.83;;;1.10;;
22634;SDS011;11484;50.858;4.384;2023-05-16T09:04:02;3.90;;;0.88;;
22634;SDS011;11484;50.858;4.384;2023-05-16T09:06:30;4.07;;;0.82;;
22634;SDS011;11484;50.858;4.384;2023-05-16T09:08:56;4.07;;;0.80;;
22634;SDS011;11484;50.858;4.384;2023-05-16T09:11:22;3.88;;;0.63;;
22634;SDS011;11484;50.858;4.384;2023-05-16T09:13:48;4.40;;;1.02;;
22634;SDS011;11484;50.858;4.384;2023-05-16T09:16:15;2.53;;;0.60;;
22634;SDS011;11484;50.858;4.384;2023-05-16T09:18:44;5.80;;;1.00;;
22634;SDS011;11484;50.858;4.384;2023-05-16T09:21:11;3.15;;;0.77;;
22634;SDS011;11484;50.858;4.384;2023-05-16T09:23:37;4.63;;;0.95;;
22634;SDS011;11484;50.858;4.384;2023-05-16T09:26:06;3.72;;;0.88;;
22634;SDS011;11484;50.858;4.384;2023-05-16T09:28:32;5.82;;;1.52;;
22634;SDS011;11484;50.858;4.384;2023-05-16T09:30:58;2.95;;;0.70;;
22634;SDS011;11484;50.858;4.384;2023-05-16T09:33:27;3.38;;;0.75;;
22634;SDS011;11484;50.858;4.384;2023-05-16T09:35:54;4.32;;;0.88;;
22634;SDS011;11484;50.858;4.384;2023-05-16T09:38:24;4.03;;;0.95;;
22634;SDS011;11484;50.858;4.384;2023-05-16T09:40:54;4.70;;;1.13;;
22634;SDS011;11484;50.858;4.384;2023-05-16T09:43:24;3.13;;;0.90;;
22634;SDS011;11484;50.858;4.384;2023-05-16T09:45:50;7.38;;;1.00;;
22634;SDS011;11484;50.858;4.384;2023-05-16T09:48:17;6.18;;;0.90;;
22634;SDS011;11484;50.858;4.384;2023-05-16T09:50:47;5.28;;;0.88;;
22634;SDS011;11484;50.858;4.384;2023-05-16T09:53:27;4.38;;;1.08;;
22634;SDS011;11484;50.858;4.384;2023-05-16T09:55:58;3.90;;;1.38;;
22634;SDS011;11484;50.858;4.384;2023-05-16T09:58:31;6.35;;;1.60;;
22634;SDS011;11484;50.858;4.384;2023-05-16T10:00:59;5.13;;;0.90;;
22634;SDS011;11484;50.858;4.384;2023-05-16T10:03:25;2.28;;;0.73;;
22634;SDS011;11484;50.858;4.384;2023-05-16T10:05:52;3.28;;;0.80;;
22634;SDS011;11484;50.858;4.384;2023-05-16T10:08:23;5.63;;;0.70;;
22634;SDS011;11484;50.858;4.384;2023-05-16T10:10:50;2.80;;;0.60;;
22634;SDS011;11484;50.858;4.384;2023-05-16T10:13:18;2.83;;;1.00;;
22634;SDS011;11484;50.858;4.384;2023-05-16T10:15:45;6.43;;;3.33;;
22634;SDS011;11484;50.858;4.384;2023-05-16T10:18:12;5.40;;;0.95;;
22634;SDS011;11484;50.858;4.384;2023-05-16T10:20:42;3.20;;;1.20;;
22634;SDS011;11484;50.858;4.384;2023-05-16T10:23:10;8.10;;;3.95;;
22634;SDS011;11484;50.858;4.384;2023-05-16T10:25:44;4.57;;;0.90;;
22634;SDS011;11484;50.858;4.384;2023-05-16T10:28:11;3.25;;;0.70;;
22634;SDS011;11484;50.858;4.384;2023-05-16T10:30:39;3.60;;;0.77;;
22634;SDS011;11484;50.858;4.384;2023-05-16T10:33:08;4.15;;;0.73;;
22634;SDS011;11484;50.858;4.384;2023-05-16T10:35:38;2.65;;;0.68;;
22634;SDS011;11484;50.858;4.384;2023-05-16T10:38:05;19.05;;;12.07;;
22634;SDS011;11484;50.858;4.384;2023-05-16T10:40:32;12.27;;;6.03;;
22634;SDS011;11484;50.858;4.384;2023-05-16T10:43:00;3.50;;;0.80;;
22634;SDS011;11484;50.858;4.384;2023-05-16T10:45:28;1.98;;;0.90;;
22634;SDS011;11484;50.858;4.384;2023-05-16T10:47:55;2.50;;;0.57;;
22634;SDS011;11484;50.858;4.384;2023-05-16T10:53:19;3.30;;;0.63;;
22634;SDS011;11484;50.858;4.384;2023-05-16T11:06:26;5.15;;;1.45;;
22634;SDS011;11484;50.858;4.384;2023-05-16T11:09:35;4.38;;;1.25;;
22634;SDS011;11484;50.858;4.384;2023-05-16T11:12:01;6.25;;;2.65;;
22634;SDS011;11484;50.858;4.384;2023-05-16T11:14:28;3.45;;;0.90;;
22634;SDS011;11484;50.858;4.384;2023-05-16T11:17:10;4.03;;;1.02;;
22634;SDS011;11484;50.858;4.384;2023-05-16T11:19:47;4.18;;;1.38;;
22634;SDS011;11484;50.858;4.384;2023-05-16T11:22:29;2.50;;;0.90;;
22634;SDS011;11484;50.858;4.384;2023-05-16T11:25:06;3.78;;;0.73;;
22634;SDS011;11484;50.858;4.384;2023-05-16T11:30:19;5.22;;;0.68;;
22634;SDS011;11484;50.858;4.384;2023-05-16T11:32:46;3.95;;;0.75;;
22634;SDS011;11484;50.858;4.384;2023-05-16T11:35:13;3.20;;;0.82;;
22634;SDS011;11484;50.858;4.384;2023-05-16T11:37:41;3.85;;;0.75;;
22634;SDS011;11484;50.858;4.384;2023-05-16T11:40:07;5.13;;;0.95;;
22634;SDS011;11484;50.858;4.384;2023-05-16T11:42:36;2.35;;;0.73;;
22634;SDS011;11484;50.858;4.384;2023-05-16T11:45:20;5.57;;;1.02;;
22634;SDS011;11484;50.858;4.384;2023-05-16T11:47:48;3.33;;;0.60;;
22634;SDS011;11484;50.858;4.384;2023-05-16T11:50:15;3.15;;;0.68;;
22634;SDS011;11484;50.858;4.384;2023-05-16T11:52:42;5.25;;;1.20;;
22634;SDS011;11484;50.858;4.384;2023-05-16T11:55:10;6.30;;;1.75;;
22634;SDS011;11484;50.858;4.384;2023-05-16T11:57:39;5.22;;;1.17;;
22634;SDS011;11484;50.858;4.384;2023-05-16T12:02:49;3.25;;;0.88;;
22634;SDS011;11484;50.858;4.384;2023-05-16T12:05:15;4.65;;;0.93;;
22634;SDS011;11484;50.858;4.384;2023-05-16T12:07:43;2.95;;;1.13;;
22634;SDS011;11484;50.858;4.384;2023-05-16T12:10:10;4.00;;;0.77;;
22634;SDS011;11484;50.858;4.384;2023-05-16T12:12:37;4.55;;;1.00;;
22634;SDS011;11484;50.858;4.384;2023-05-16T12:15:07;4.85;;;1.17;;
22634;SDS011;11484;50.858;4.384;2023-05-16T12:17:34;2.75;;;0.95;;
22634;SDS011;11484;50.858;4.384;2023-05-16T12:20:01;4.20;;;1.13;;
22634;SDS011;11484;50.858;4.384;2023-05-16T12:25:43;3.13;;;0.70;;
22634;SDS011;11484;50.858;4.384;2023-05-16T12:27:57;2.42;;;0.85;;
22634;SDS011;11484;50.858;4.384;2023-05-16T12:30:25;2.88;;;0.90;;
22634;SDS011;11484;50.858;4.384;2023-05-16T12:32:58;3.70;;;1.00;;
22634;SDS011;11484;50.858;4.384;2023-05-16T12:35:25;4.88;;;1.00;;
22634;SDS011;11484;50.858;4.384;2023-05-16T12:37:57;3.05;;;1.30;;
22634;SDS011;11484;50.858;4.384;2023-05-16T12:40:26;3.95;;;0.98;;
22634;SDS011;11484;50.858;4.384;2023-05-16T12:42:53;1.58;;;0.80;;
22634;SDS011;11484;50.858;4.384;2023-05-16T12:45:20;4.20;;;1.10;;
22634;SDS011;11484;50.858;4.384;2023-05-16T12:47:47;5.07;;;1.02;;
22634;SDS011;11484;50.858;4.384;2023-05-16T12:50:13;2.72;;;0.60;;
22634;SDS011;11484;50.858;4.384;2023-05-16T12:52:51;2.47;;;0.70;;
22634;SDS011;11484;50.858;4.384;2023-05-16T12:55:18;1.70;;;0.80;;
22634;SDS011;11484;50.858;4.384;2023-05-16T12:57:46;3.78;;;0.60;;
22634;SDS011;11484;50.858;4.384;2023-05-16T13:00:14;2.72;;;0.70;;
22634;SDS011;11484;50.858;4.384;2023-05-16T13:02:43;2.60;;;0.70;;
22634;SDS011;11484;50.858;4.384;2023-05-16T13:05:09;4.22;;;0.70;;
22634;SDS011;11484;50.858;4.384;2023-05-16T13:07:35;2.25;;;0.50;;
22634;SDS011;11484;50.858;4.384;2023-05-16T13:10:03;2.45;;;0.68;;
22634;SDS011;11484;50.858;4.384;2023-05-16T13:12:30;3.85;;;0.85;;
22634;SDS011;11484;50.858;4.384;2023-05-16T13:14:56;1.88;;;0.57;;
22634;SDS011;11484;50.858;4.384;2023-05-16T13:17:22;2.88;;;0.65;;
22634;SDS011;11484;50.858;4.384;2023-05-16T13:19:50;3.30;;;0.60;;
22634;SDS011;11484;50.858;4.384;2023-05-16T13:22:16;4.22;;;0.70;;
22634;SDS011;11484;50.858;4.384;2023-05-16T13:24:42;1.63;;;0.70;;
22634;SDS011;11484;50.858;4.384;2023-05-16T13:27:08;2.45;;;0.88;;
22634;SDS011;11484;50.858;4.384;2023-05-16T13:29:33;2.75;;;0.80;;
22634;SDS011;11484;50.858;4.384;2023-05-16T13:31:59;3.08;;;0.70;;
22634;SDS011;11484;50.858;4.384;2023-05-16T13:34:24;3.08;;;0.75;;
22634;SDS011;11484;50.858;4.384;2023-05-16T13:36:50;2.72;;;0.95;;
22634;SDS011;11484;50.858;4.384;2023-05-16T13:39:16;4.07;;;0.60;;
22634;SDS011;11484;50.858;4.384;2023-05-16T13:41:42;2.15;;;0.60;;
22634;SDS011;11484;50.858;4.384;2023-05-16T13:44:08;1.73;;;0.70;;
22634;SDS011;11484;50.858;4.384;2023-05-16T13:46:34;4.63;;;0.80;;
22634;SDS011;11484;50.858;4.384;2023-05-16T13:49:00;2.58;;;0.85;;
22634;SDS011;11484;50.858;4.384;2023-05-16T13:51:25;3.00;;;1.10;;
22634;SDS011;11484;50.858;4.384;2023-05-16T13:53:51;3.70;;;0.85;;
22634;SDS011;11484;50.858;4.384;2023-05-16T13:56:17;2.22;;;0.75;;
22634;SDS011;11484;50.858;4.384;2023-05-16T13:58:42;4.78;;;1.33;;
22634;SDS011;11484;50.858;4.384;2023-05-16T14:01:08;4.90;;;0.60;;
22634;SDS011;11484;50.858;4.384;2023-05-16T14:03:34;2.28;;;0.75;;
22634;SDS011;11484;50.858;4.384;2023-05-16T14:06:00;1.77;;;0.65;;
22634;SDS011;11484;50.858;4.384;2023-05-16T14:08:26;5.63;;;0.75;;
22634;SDS011;11484;50.858;4.384;2023-05-16T14:10:53;2.13;;;0.93;;
22634;SDS011;11484;50.858;4.384;2023-05-16T14:13:19;2.67;;;0.88;;
22634;SDS011;11484;50.858;4.384;2023-05-16T14:15:45;3.08;;;0.95;;
22634;SDS011;11484;50.858;4.384;2023-05-16T14:18:10;4.20;;;0.90;;
22634;SDS011;11484;50.858;4.384;2023-05-16T14:20:37;4.15;;;0.95;;
22634;SDS011;11484;50.858;4.384;2023-05-16T14:23:03;4.05;;;1.05;;
22634;SDS011;11484;50.858;4.384;2023-05-16T14:25:29;3.88;;;0.80;;
22634;SDS011;11484;50.858;4.384;2023-05-16T14:27:54;4.05;;;0.82;;
22634;SDS011;11484;50.858;4.384;2023-05-16T14:30:20;4.43;;;1.88;;
22634;SDS011;11484;50.858;4.384;2023-05-16T14:32:46;4.88;;;1.10;;
22634;SDS011;11484;50.858;4.384;2023-05-16T14:35:12;4.43;;;0.90;;
22634;SDS011;11484;50.858;4.384;2023-05-16T14:37:37;4.40;;;0.82;;
22634;SDS011;11484;50.858;4.384;2023-05-16T14:40:03;3.22;;;0.60;;
22634;SDS011;11484;50.858;4.384;2023-05-16T14:42:30;3.17;;;0.63;;
22634;SDS011;11484;50.858;4.384;2023-05-16T14:44:56;2.55;;;0.60;;
22634;SDS011;11484;50.858;4.384;2023-05-16T14:47:22;3.83;;;0.70;;
22634;SDS011;11484;50.858;4.384;2023-05-16T14:49:48;3.33;;;0.90;;
22634;SDS011;11484;50.858;4.384;2023-05-16T14:52:14;3.25;;;0.75;;
22634;SDS011;11484;50.858;4.384;2023-05-16T14:54:40;4.57;;;1.30;;
22634;SDS011;11484;50.858;4.384;2023-05-16T14:57:05;4.15;;;0.60;;
22634;SDS011;11484;50.858;4.384;2023-05-16T14:59:31;4.13;;;0.80;;
22634;SDS011;11484;50.858;4.384;2023-05-16T15:01:57;6.57;;;0.80;;
22634;SDS011;11484;50.858;4.384;2023-05-16T15:04:23;6.18;;;1.05;;
22634;SDS011;11484;50.858;4.384;2023-05-16T15:06:50;2.45;;;0.70;;
22634;SDS011;11484;50.858;4.384;2023-05-16T15:09:16;4.30;;;1.35;;
22634;SDS011;11484;50.858;4.384;2023-05-16T15:11:43;4.05;;;0.82;;